sensor_id;sensor_type;location;lat;lon;timestamp;pressure;altitude;pressure_sealevel;temperature;humidity
11017;BME280;54687;50.800;6.772;2022-09-01T00:00:43;60812.03;;;-144.06;51.13
11017;BME280;54687;50.800;6.772;2022-09-01T00:03:12;60786.88;;;-144.06;51.01
11017;BME280;54687;50.800;6.772;2022-09-01T00:05:39;60809.94;;;-144.06;51.26
11017;BME280;54687;50.800;6.772;2022-09-01T00:08:06;60763.81;;;-144.06;51.45
11017;BME280;54687;50.800;6.772;2022-09-01T00:10:33;60795.25;;;-144.06;51.72
11017;BME280;54687;50.800;6.772;2022-09-01T00:12:59;60786.88;;;-144.06;51.80
11017;BME280;54687;50.800;6.772;2022-09-01T00:15:26;60799.44;;;-144.06;51.74
11017;BME280;54687;50.800;6.772;2022-09-01T00:17:54;60786.88;;;-144.06;51.96
11017;BME280;54687;50.800;6.772;2022-09-01T00:20:21;60818.31;;;-144.06;52.27
11017;BME280;54687;50.800;6.772;2022-09-01T00:22:49;60812.03;;;-144.06;52.01
11017;BME280;54687;50.800;6.772;2022-09-01T00:25:16;60858.13;;;-144.06;52.12
11017;BME280;54687;50.800;6.772;2022-09-01T00:27:44;60795.25;;;-144.06;51.90
11017;BME280;54687;50.800;6.772;2022-09-01T00:30:11;60763.81;;;-144.06;51.98
11017;BME280;54687;50.800;6.772;2022-09-01T00:32:38;60814.13;;;-144.06;51.89
11017;BME280;54687;50.800;6.772;2022-09-01T00:35:07;60820.41;;;-144.06;51.55
11017;BME280;54687;50.800;6.772;2022-09-01T00:37:34;60807.84;;;-144.06;51.64
11017;BME280;54687;50.800;6.772;2022-09-01T00:40:01;60784.78;;;-144.06;51.80
11017;BME280;54687;50.800;6.772;2022-09-01T00:42:28;60807.84;;;-144.06;51.72
11017;BME280;54687;50.800;6.772;2022-09-01T00:44:55;60793.16;;;-144.06;51.57
11017;BME280;54687;50.800;6.772;2022-09-01T00:47:21;60788.97;;;-144.06;51.94
11017;BME280;54687;50.800;6.772;2022-09-01T00:49:50;60845.56;;;-144.06;51.76
11017;BME280;54687;50.800;6.772;2022-09-01T00:52:21;60826.69;;;-144.06;52.00
11017;BME280;54687;50.800;6.772;2022-09-01T00:54:54;60803.66;;;-144.06;52.08
11017;BME280;54687;50.800;6.772;2022-09-01T00:57:22;60805.75;;;-144.06;52.21
11017;BME280;54687;50.800;6.772;2022-09-01T00:59:52;60826.69;;;-144.06;52.41
11017;BME280;54687;50.800;6.772;2022-09-01T01:02:20;60799.44;;;-144.06;52.40
11017;BME280;54687;50.800;6.772;2022-09-01T01:04:47;60822.50;;;-144.06;52.19
11017;BME280;54687;50.800;6.772;2022-09-01T01:07:14;60786.88;;;-144.06;52.25
11017;BME280;54687;50.800;6.772;2022-09-01T01:09:43;60812.03;;;-144.06;52.28
11017;BME280;54687;50.800;6.772;2022-09-01T01:12:11;60782.69;;;-144.06;52.49
11017;BME280;54687;50.800;6.772;2022-09-01T01:14:43;60807.84;;;-144.06;52.78
11017;BME280;54687;50.800;6.772;2022-09-01T01:17:10;60799.44;;;-144.06;52.57
11017;BME280;54687;50.800;6.772;2022-09-01T01:19:40;60782.69;;;-144.06;52.69
11017;BME280;54687;50.800;6.772;2022-09-01T01:22:34;60837.19;;;-144.06;52.46
11017;BME280;54687;50.800;6.772;2022-09-01T01:25:23;60797.34;;;-144.06;52.65
11017;BME280;54687;50.800;6.772;2022-09-01T01:27:50;60828.78;;;-144.06;52.38
11017;BME280;54687;50.800;6.772;2022-09-01T01:30:18;60812.03;;;-144.06;52.44
11017;BME280;54687;50.800;6.772;2022-09-01T01:32:45;60795.25;;;-144.06;52.41
11017;BME280;54687;50.800;6.772;2022-09-01T01:35:14;60833.00;;;-144.06;52.51
11017;BME280;54687;50.800;6.772;2022-09-01T01:37:46;60828.78;;;-144.06;52.36
11017;BME280;54687;50.800;6.772;2022-09-01T01:40:16;60816.22;;;-144.06;52.49
11017;BME280;54687;50.800;6.772;2022-09-01T01:42:46;60843.47;;;-144.06;52.86
11017;BME280;54687;50.800;6.772;2022-09-01T01:45:14;60833.00;;;-144.06;53.08
11017;BME280;54687;50.800;6.772;2022-09-01T01:47:43;60797.34;;;-144.06;53.05
11017;BME280;54687;50.800;6.772;2022-09-01T01:50:12;60799.44;;;-144.06;52.98
11017;BME280;54687;50.800;6.772;2022-09-01T01:52:40;60791.06;;;-144.06;53.17
11017;BME280;54687;50.800;6.772;2022-09-01T01:55:08;60862.34;;;-144.06;53.26
11017;BME280;54687;50.800;6.772;2022-09-01T01:57:37;60824.59;;;-144.06;53.47
11017;BME280;54687;50.800;6.772;2022-09-01T02:00:07;60807.84;;;-144.06;53.57
11017;BME280;54687;50.800;6.772;2022-09-01T02:02:35;60839.28;;;-144.06;53.88
11017;BME280;54687;50.800;6.772;2022-09-01T02:05:04;60822.50;;;-144.06;53.92
11017;BME280;54687;50.800;6.772;2022-09-01T02:07:32;60799.44;;;-144.06;53.99
11017;BME280;54687;50.800;6.772;2022-09-01T02:09:58;60803.66;;;-144.06;54.05
11017;BME280;54687;50.800;6.772;2022-09-01T02:12:26;60868.63;;;-144.06;54.27
11017;BME280;54687;50.800;6.772;2022-09-01T02:14:53;60807.84;;;-144.06;54.42
11017;BME280;54687;50.800;6.772;2022-09-01T02:17:22;60816.22;;;-144.06;54.45
11017;BME280;54687;50.800;6.772;2022-09-01T02:19:51;60845.56;;;-144.06;54.62
11017;BME280;54687;50.800;6.772;2022-09-01T02:22:21;60791.06;;;-144.06;54.67
11017;BME280;54687;50.800;6.772;2022-09-01T02:24:47;60877.00;;;-144.06;54.68
11017;BME280;54687;50.800;6.772;2022-09-01T02:27:16;60833.00;;;-144.06;54.64
11017;BME280;54687;50.800;6.772;2022-09-01T02:29:50;60828.78;;;-144.06;54.52
11017;BME280;54687;50.800;6.772;2022-09-01T02:32:18;60845.56;;;-144.06;54.83
11017;BME280;54687;50.800;6.772;2022-09-01T02:34:48;60849.75;;;-144.06;54.69
11017;BME280;54687;50.800;6.772;2022-09-01T02:37:18;60872.81;;;-144.06;54.62
11017;BME280;54687;50.800;6.772;2022-09-01T02:39:50;60828.78;;;-144.06;54.69
11017;BME280;54687;50.800;6.772;2022-09-01T02:42:17;60841.38;;;-144.06;54.69
11017;BME280;54687;50.800;6.772;2022-09-01T02:44:51;60820.41;;;-144.06;54.52
11017;BME280;54687;50.800;6.772;2022-09-01T02:47:19;60837.19;;;-144.06;54.56
11017;BME280;54687;50.800;6.772;2022-09-01T02:49:49;60822.50;;;-144.06;54.49
11017;BME280;54687;50.800;6.772;2022-09-01T02:52:16;60837.19;;;-144.06;54.51
11017;BME280;54687;50.800;6.772;2022-09-01T02:54:45;60791.06;;;-144.06;54.49
11017;BME280;54687;50.800;6.772;2022-09-01T02:57:15;60849.75;;;-144.06;54.63
11017;BME280;54687;50.800;6.772;2022-09-01T02:59:42;60866.53;;;-144.06;54.69
11017;BME280;54687;50.800;6.772;2022-09-01T03:04:44;60816.22;;;-144.06;54.44
11017;BME280;54687;50.800;6.772;2022-09-01T03:07:21;60833.00;;;-144.06;54.66
11017;BME280;54687;50.800;6.772;2022-09-01T03:09:49;60866.53;;;-144.06;54.64
11017;BME280;54687;50.800;6.772;2022-09-01T03:12:16;60837.19;;;-144.06;54.90
11017;BME280;54687;50.800;6.772;2022-09-01T03:14:44;60837.19;;;-144.06;54.82
11017;BME280;54687;50.800;6.772;2022-09-01T03:17:11;60839.28;;;-144.06;54.74
11017;BME280;54687;50.800;6.772;2022-09-01T03:19:38;60849.75;;;-144.06;54.76
11017;BME280;54687;50.800;6.772;2022-09-01T03:22:08;60900.06;;;-144.06;54.92
11017;BME280;54687;50.800;6.772;2022-09-01T03:24:37;60858.13;;;-144.06;54.90
11017;BME280;54687;50.800;6.772;2022-09-01T03:27:04;60872.81;;;-144.06;54.72
11017;BME280;54687;50.800;6.772;2022-09-01T03:29:31;60841.38;;;-144.06;54.95
11017;BME280;54687;50.800;6.772;2022-09-01T03:31:58;60853.94;;;-144.06;54.77
11017;BME280;54687;50.800;6.772;2022-09-01T03:34:25;60807.84;;;-144.06;54.99
11017;BME280;54687;50.800;6.772;2022-09-01T03:36:52;60874.91;;;-144.06;54.60
11017;BME280;54687;50.800;6.772;2022-09-01T03:39:19;60845.56;;;-144.06;55.01
11017;BME280;54687;50.800;6.772;2022-09-01T03:41:47;60853.94;;;-144.06;55.10
11017;BME280;54687;50.800;6.772;2022-09-01T03:44:14;60853.94;;;-144.06;55.06
11017;BME280;54687;50.800;6.772;2022-09-01T03:46:41;60862.34;;;-144.06;55.32
11017;BME280;54687;50.800;6.772;2022-09-01T03:49:08;60830.88;;;-144.06;55.19
11017;BME280;54687;50.800;6.772;2022-09-01T03:51:40;60841.38;;;-144.06;55.52
11017;BME280;54687;50.800;6.772;2022-09-01T03:54:09;60866.53;;;-144.06;55.43
11017;BME280;54687;50.800;6.772;2022-09-01T03:56:35;60816.22;;;-144.06;55.69
11017;BME280;54687;50.800;6.772;2022-09-01T03:59:07;60837.19;;;-144.06;55.76
11017;BME280;54687;50.800;6.772;2022-09-01T04:01:42;60862.34;;;-144.06;55.78
11017;BME280;54687;50.800;6.772;2022-09-01T04:04:11;60849.75;;;-144.06;55.83
11017;BME280;54687;50.800;6.772;2022-09-01T04:06:39;60839.28;;;-144.06;55.72
11017;BME280;54687;50.800;6.772;2022-09-01T04:09:06;60845.56;;;-144.06;56.06
11017;BME280;54687;50.800;6.772;2022-09-01T04:11:36;60874.91;;;-144.06;56.02
11017;BME280;54687;50.800;6.772;2022-09-01T04:14:04;60906.34;;;-144.06;56.01
11017;BME280;54687;50.800;6.772;2022-09-01T04:16:33;60820.41;;;-144.06;56.01
11017;BME280;54687;50.800;6.772;2022-09-01T04:19:22;60887.47;;;-144.06;56.05
11017;BME280;54687;50.800;6.772;2022-09-01T04:21:52;60862.34;;;-144.06;56.31
11017;BME280;54687;50.800;6.772;2022-09-01T04:24:20;60887.47;;;-144.06;56.16
11017;BME280;54687;50.800;6.772;2022-09-01T04:26:48;60893.78;;;-144.06;56.42
11017;BME280;54687;50.800;6.772;2022-09-01T04:29:16;60845.56;;;-144.06;56.44
11017;BME280;54687;50.800;6.772;2022-09-01T04:31:53;60870.72;;;-144.06;56.56
11017;BME280;54687;50.800;6.772;2022-09-01T04:34:21;60866.53;;;-144.06;56.60
11017;BME280;54687;50.800;6.772;2022-09-01T04:36:49;60856.03;;;-144.06;56.91
11017;BME280;54687;50.800;6.772;2022-09-01T04:39:18;60845.56;;;-144.06;56.91
11017;BME280;54687;50.800;6.772;2022-09-01T04:41:44;60914.72;;;-144.06;57.14
11017;BME280;54687;50.800;6.772;2022-09-01T04:44:13;60914.72;;;-144.06;57.14
11017;BME280;54687;50.800;6.772;2022-09-01T04:46:44;60837.19;;;-144.06;57.12
11017;BME280;54687;50.800;6.772;2022-09-01T04:49:17;60910.53;;;-144.06;57.09
11017;BME280;54687;50.800;6.772;2022-09-01T04:51:48;60860.25;;;-144.06;57.35
11017;BME280;54687;50.800;6.772;2022-09-01T04:54:16;60822.50;;;-144.06;57.07
11017;BME280;54687;50.800;6.772;2022-09-01T04:56:45;60862.34;;;-144.06;57.42
11017;BME280;54687;50.800;6.772;2022-09-01T04:59:16;60900.06;;;-144.06;57.25
11017;BME280;54687;50.800;6.772;2022-09-01T05:01:45;60883.28;;;-144.06;57.19
11017;BME280;54687;50.800;6.772;2022-09-01T05:04:23;60853.94;;;-144.06;57.19
11017;BME280;54687;50.800;6.772;2022-09-01T05:06:53;60891.69;;;-144.06;57.32
11017;BME280;54687;50.800;6.772;2022-09-01T05:09:26;60889.59;;;-144.06;57.22
11017;BME280;54687;50.800;6.772;2022-09-01T05:11:54;60885.38;;;-144.06;57.27
11017;BME280;54687;50.800;6.772;2022-09-01T05:14:22;60885.38;;;-144.06;57.07
11017;BME280;54687;50.800;6.772;2022-09-01T05:16:49;60887.47;;;-144.06;56.99
11017;BME280;54687;50.800;6.772;2022-09-01T05:19:19;60849.75;;;-144.06;56.47
11017;BME280;54687;50.800;6.772;2022-09-01T05:21:48;60856.03;;;-144.06;56.32
11017;BME280;54687;50.800;6.772;2022-09-01T05:24:17;60851.84;;;-144.06;56.17
11017;BME280;54687;50.800;6.772;2022-09-01T05:26:46;60845.56;;;-144.06;56.19
11017;BME280;54687;50.800;6.772;2022-09-01T05:29:15;60853.94;;;-144.06;55.79
11017;BME280;54687;50.800;6.772;2022-09-01T05:31:43;60853.94;;;-144.06;55.76
11017;BME280;54687;50.800;6.772;2022-09-01T05:34:11;60851.84;;;-144.06;55.68
11017;BME280;54687;50.800;6.772;2022-09-01T05:36:43;60866.53;;;-144.06;55.57
11017;BME280;54687;50.800;6.772;2022-09-01T05:39:10;60830.88;;;-144.06;55.54
11017;BME280;54687;50.800;6.772;2022-09-01T05:41:37;60833.00;;;-144.06;55.11
11017;BME280;54687;50.800;6.772;2022-09-01T05:44:05;60830.88;;;-144.06;54.84
11017;BME280;54687;50.800;6.772;2022-09-01T05:46:34;60837.19;;;-144.06;54.64
11017;BME280;54687;50.800;6.772;2022-09-01T05:49:02;60824.59;;;-144.06;54.17
11017;BME280;54687;50.800;6.772;2022-09-01T05:51:32;60822.50;;;-144.06;54.15
11017;BME280;54687;50.800;6.772;2022-09-01T05:54:02;60841.38;;;-144.06;53.70
11017;BME280;54687;50.800;6.772;2022-09-01T05:56:31;60849.75;;;-144.06;53.76
11017;BME280;54687;50.800;6.772;2022-09-01T05:58:59;60814.13;;;-144.06;53.72
11017;BME280;54687;50.800;6.772;2022-09-01T06:01:27;60801.53;;;-144.06;53.57
11017;BME280;54687;50.800;6.772;2022-09-01T06:03:58;60833.00;;;-144.06;53.33
11017;BME280;54687;50.800;6.772;2022-09-01T06:06:33;60830.88;;;-144.06;53.09
11017;BME280;54687;50.800;6.772;2022-09-01T06:09:05;60841.38;;;-144.06;52.98
11017;BME280;54687;50.800;6.772;2022-09-01T06:11:32;60803.66;;;-144.06;52.95
11017;BME280;54687;50.800;6.772;2022-09-01T06:13:59;60839.28;;;-144.06;53.03
11017;BME280;54687;50.800;6.772;2022-09-01T06:16:27;60820.41;;;-144.06;52.80
11017;BME280;54687;50.800;6.772;2022-09-01T06:18:54;60812.03;;;-144.06;52.67
11017;BME280;54687;50.800;6.772;2022-09-01T06:21:25;60828.78;;;-144.06;52.68
11017;BME280;54687;50.800;6.772;2022-09-01T06:23:55;60797.34;;;-144.06;52.71
11017;BME280;54687;50.800;6.772;2022-09-01T06:26:25;60824.59;;;-144.06;52.71
11017;BME280;54687;50.800;6.772;2022-09-01T06:28:54;60807.84;;;-144.06;52.55
11017;BME280;54687;50.800;6.772;2022-09-01T06:31:21;60826.69;;;-144.06;52.58
11017;BME280;54687;50.800;6.772;2022-09-01T06:33:49;60786.88;;;-144.06;52.56
11017;BME280;54687;50.800;6.772;2022-09-01T06:36:17;60791.06;;;-144.06;52.71
11017;BME280;54687;50.800;6.772;2022-09-01T06:38:46;60805.75;;;-144.06;52.49
11017;BME280;54687;50.800;6.772;2022-09-01T06:41:16;60795.25;;;-144.06;52.41
11017;BME280;54687;50.800;6.772;2022-09-01T06:43:45;60853.94;;;-144.06;52.52
11017;BME280;54687;50.800;6.772;2022-09-01T06:46:12;60853.94;;;-144.06;52.37
11017;BME280;54687;50.800;6.772;2022-09-01T06:48:39;60812.03;;;-144.06;52.30
11017;BME280;54687;50.800;6.772;2022-09-01T06:51:12;60803.66;;;-144.06;52.31
11017;BME280;54687;50.800;6.772;2022-09-01T06:53:40;60814.13;;;-144.06;52.33
11017;BME280;54687;50.800;6.772;2022-09-01T06:56:08;60822.50;;;-144.06;52.14
11017;BME280;54687;50.800;6.772;2022-09-01T06:58:37;60791.06;;;-144.06;52.11
11017;BME280;54687;50.800;6.772;2022-09-01T07:01:09;60828.78;;;-144.06;52.02
11017;BME280;54687;50.800;6.772;2022-09-01T07:03:41;60782.69;;;-144.06;51.65
11017;BME280;54687;50.800;6.772;2022-09-01T07:06:08;60816.22;;;-144.06;51.65
11017;BME280;54687;50.800;6.772;2022-09-01T07:08:36;60795.25;;;-144.06;51.82
11017;BME280;54687;50.800;6.772;2022-09-01T07:11:05;60799.44;;;-144.06;51.50
11017;BME280;54687;50.800;6.772;2022-09-01T07:13:33;60765.91;;;-144.06;51.36
11017;BME280;54687;50.800;6.772;2022-09-01T07:16:01;60774.28;;;-144.06;50.76
11017;BME280;54687;50.800;6.772;2022-09-01T07:18:32;60788.97;;;-144.06;51.04
11017;BME280;54687;50.800;6.772;2022-09-01T07:20:59;60757.53;;;-144.06;50.67
11017;BME280;54687;50.800;6.772;2022-09-01T07:23:26;60780.59;;;-144.06;50.72
11017;BME280;54687;50.800;6.772;2022-09-01T07:25:54;60765.91;;;-144.06;50.80
11017;BME280;54687;50.800;6.772;2022-09-01T07:28:23;60774.28;;;-144.06;50.08
11017;BME280;54687;50.800;6.772;2022-09-01T07:30:54;60732.38;;;-144.06;50.22
11017;BME280;54687;50.800;6.772;2022-09-01T07:33:21;60803.66;;;-144.06;50.28
11017;BME280;54687;50.800;6.772;2022-09-01T07:35:50;60778.50;;;-144.06;49.11
11017;BME280;54687;50.800;6.772;2022-09-01T07:38:20;60791.06;;;-144.06;48.33
11017;BME280;54687;50.800;6.772;2022-09-01T07:40:46;60795.25;;;-144.06;48.41
11017;BME280;54687;50.800;6.772;2022-09-01T07:43:17;60761.72;;;-144.06;47.96
11017;BME280;54687;50.800;6.772;2022-09-01T07:45:48;60744.94;;;-144.06;47.65
11017;BME280;54687;50.800;6.772;2022-09-01T07:48:16;60782.69;;;-144.06;47.45
11017;BME280;54687;50.800;6.772;2022-09-01T07:50:46;60761.72;;;-144.06;47.34
11017;BME280;54687;50.800;6.772;2022-09-01T07:53:14;60795.25;;;-144.06;47.14
11017;BME280;54687;50.800;6.772;2022-09-01T07:55:43;60753.34;;;-144.06;47.06
11017;BME280;54687;50.800;6.772;2022-09-01T07:58:12;60751.25;;;-144.06;47.20
11017;BME280;54687;50.800;6.772;2022-09-01T08:00:40;60761.72;;;-144.06;46.79
11017;BME280;54687;50.800;6.772;2022-09-01T08:03:08;60757.53;;;-144.06;46.43
11017;BME280;54687;50.800;6.772;2022-09-01T08:05:35;60732.38;;;-144.06;46.21
11017;BME280;54687;50.800;6.772;2022-09-01T08:08:02;60736.56;;;-144.06;45.83
11017;BME280;54687;50.800;6.772;2022-09-01T08:10:31;60736.56;;;-144.06;45.89
11017;BME280;54687;50.800;6.772;2022-09-01T08:12:58;60736.56;;;-144.06;45.79
11017;BME280;54687;50.800;6.772;2022-09-01T08:15:25;60713.50;;;-144.06;45.83
11017;BME280;54687;50.800;6.772;2022-09-01T08:17:51;60721.91;;;-144.06;45.98
11017;BME280;54687;50.800;6.772;2022-09-01T08:20:18;60744.94;;;-144.06;45.25
11017;BME280;54687;50.800;6.772;2022-09-01T08:22:45;60711.41;;;-144.06;45.51
11017;BME280;54687;50.800;6.772;2022-09-01T08:25:12;60707.22;;;-144.06;45.43
11017;BME280;54687;50.800;6.772;2022-09-01T08:27:41;60728.19;;;-144.06;45.39
11017;BME280;54687;50.800;6.772;2022-09-01T08:30:10;60686.25;;;-144.06;45.44
11017;BME280;54687;50.800;6.772;2022-09-01T08:32:38;60724.00;;;-144.06;45.28
11017;BME280;54687;50.800;6.772;2022-09-01T08:35:07;60724.00;;;-144.06;44.77
11017;BME280;54687;50.800;6.772;2022-09-01T08:37:34;60732.38;;;-144.06;45.00
11017;BME280;54687;50.800;6.772;2022-09-01T08:40:02;60732.38;;;-144.06;44.65
11017;BME280;54687;50.800;6.772;2022-09-01T08:42:43;60728.19;;;-144.06;44.59
11017;BME280;54687;50.800;6.772;2022-09-01T08:45:20;60744.94;;;-144.06;44.49
11017;BME280;54687;50.800;6.772;2022-09-01T08:47:50;60694.66;;;-144.06;44.40
11017;BME280;54687;50.800;6.772;2022-09-01T08:50:18;60732.38;;;-144.06;44.28
11017;BME280;54687;50.800;6.772;2022-09-01T08:52:48;60724.00;;;-144.06;44.37
11017;BME280;54687;50.800;6.772;2022-09-01T08:55:21;60673.69;;;-144.06;44.03
11017;BME280;54687;50.800;6.772;2022-09-01T08:57:54;60732.38;;;-144.06;43.60
11017;BME280;54687;50.800;6.772;2022-09-01T09:00:23;60700.94;;;-144.06;43.58
11017;BME280;54687;50.800;6.772;2022-09-01T09:02:59;60711.41;;;-144.06;43.37
11017;BME280;54687;50.800;6.772;2022-09-01T09:05:45;60686.25;;;-144.06;43.54
11017;BME280;54687;50.800;6.772;2022-09-01T09:08:23;60698.84;;;-144.06;43.21
11017;BME280;54687;50.800;6.772;2022-09-01T09:10:57;60705.13;;;-144.06;43.20
11017;BME280;54687;50.800;6.772;2022-09-01T09:13:34;60705.13;;;-144.06;43.00
11017;BME280;54687;50.800;6.772;2022-09-01T09:16:07;60686.25;;;-144.06;42.95
11017;BME280;54687;50.800;6.772;2022-09-01T09:18:40;60684.16;;;-144.06;43.24
11017;BME280;54687;50.800;6.772;2022-09-01T09:21:14;60673.69;;;-144.06;43.58
11017;BME280;54687;50.800;6.772;2022-09-01T09:23:44;60648.53;;;-144.06;42.63
11017;BME280;54687;50.800;6.772;2022-09-01T09:26:12;60665.31;;;-144.06;42.57
11017;BME280;54687;50.800;6.772;2022-09-01T09:28:40;60690.47;;;-144.06;42.60
11017;BME280;54687;50.800;6.772;2022-09-01T09:31:35;60677.88;;;-144.06;41.87
11017;BME280;54687;50.800;6.772;2022-09-01T09:34:03;60682.06;;;-144.06;42.22
11017;BME280;54687;50.800;6.772;2022-09-01T09:36:41;60665.31;;;-144.06;41.30
11017;BME280;54687;50.800;6.772;2022-09-01T09:39:12;60698.84;;;-144.06;41.42
11017;BME280;54687;50.800;6.772;2022-09-01T09:41:41;60684.16;;;-144.06;41.11
11017;BME280;54687;50.800;6.772;2022-09-01T09:44:23;60690.47;;;-144.06;41.06
11017;BME280;54687;50.800;6.772;2022-09-01T09:46:51;60656.91;;;-144.06;40.65
11017;BME280;54687;50.800;6.772;2022-09-01T09:49:21;60644.34;;;-144.06;40.76
11017;BME280;54687;50.800;6.772;2022-09-01T09:51:51;60642.25;;;-144.06;41.06
11017;BME280;54687;50.800;6.772;2022-09-01T09:54:21;60677.88;;;-144.06;40.42
11017;BME280;54687;50.800;6.772;2022-09-01T09:57:02;60665.31;;;-144.06;40.15
11017;BME280;54687;50.800;6.772;2022-09-01T09:59:32;60673.69;;;-144.06;40.15
11017;BME280;54687;50.800;6.772;2022-09-01T10:02:16;60669.50;;;-144.06;39.63
11017;BME280;54687;50.800;6.772;2022-09-01T10:04:47;60629.69;;;-144.06;40.17
11017;BME280;54687;50.800;6.772;2022-09-01T10:07:27;60656.91;;;-144.06;39.83
11017;BME280;54687;50.800;6.772;2022-09-01T10:09:56;60644.34;;;-144.06;39.83
11017;BME280;54687;50.800;6.772;2022-09-01T10:12:26;60648.53;;;-144.06;39.42
11017;BME280;54687;50.800;6.772;2022-09-01T10:14:58;60690.47;;;-144.06;39.27
11017;BME280;54687;50.800;6.772;2022-09-01T10:17:29;60648.53;;;-144.06;39.23
11017;BME280;54687;50.800;6.772;2022-09-01T10:20:02;60661.13;;;-144.06;38.92
11017;BME280;54687;50.800;6.772;2022-09-01T10:22:31;60633.88;;;-144.06;38.98
11017;BME280;54687;50.800;6.772;2022-09-01T10:24:58;60661.13;;;-144.06;38.95
11017;BME280;54687;50.800;6.772;2022-09-01T10:27:29;60648.53;;;-144.06;39.00
11017;BME280;54687;50.800;6.772;2022-09-01T10:30:03;60659.03;;;-144.06;38.85
11017;BME280;54687;50.800;6.772;2022-09-01T10:32:33;60644.34;;;-144.06;38.63
11017;BME280;54687;50.800;6.772;2022-09-01T10:35:03;60661.13;;;-144.06;38.71
11017;BME280;54687;50.800;6.772;2022-09-01T10:37:33;60656.91;;;-144.06;38.73
11017;BME280;54687;50.800;6.772;2022-09-01T10:40:15;60581.47;;;-144.06;38.50
11017;BME280;54687;50.800;6.772;2022-09-01T10:42:44;60596.13;;;-144.06;38.41
11017;BME280;54687;50.800;6.772;2022-09-01T10:45:28;60615.00;;;-144.06;38.21
11017;BME280;54687;50.800;6.772;2022-09-01T10:48:04;60598.22;;;-144.06;38.64
11017;BME280;54687;50.800;6.772;2022-09-01T10:50:49;60598.22;;;-144.06;38.13
11017;BME280;54687;50.800;6.772;2022-09-01T10:53:36;60591.94;;;-144.06;37.95
11017;BME280;54687;50.800;6.772;2022-09-01T10:56:06;60631.78;;;-144.06;38.34
11017;BME280;54687;50.800;6.772;2022-09-01T10:58:44;60596.13;;;-144.06;38.25
11017;BME280;54687;50.800;6.772;2022-09-01T11:01:15;60621.28;;;-144.06;38.18
11017;BME280;54687;50.800;6.772;2022-09-01T11:04:00;60635.97;;;-144.06;37.23
11017;BME280;54687;50.800;6.772;2022-09-01T11:06:58;60600.34;;;-144.06;37.34
11017;BME280;54687;50.800;6.772;2022-09-01T11:09:32;60606.63;;;-144.06;37.75
11017;BME280;54687;50.800;6.772;2022-09-01T11:14:59;60591.94;;;-144.06;37.45
11017;BME280;54687;50.800;6.772;2022-09-01T11:17:30;60631.78;;;-144.06;37.32
11017;BME280;54687;50.800;6.772;2022-09-01T11:20:03;60583.56;;;-144.06;36.90
11017;BME280;54687;50.800;6.772;2022-09-01T11:22:36;60625.47;;;-144.06;37.23
11017;BME280;54687;50.800;6.772;2022-09-01T11:25:38;60629.69;;;-144.06;37.31
11017;BME280;54687;50.800;6.772;2022-09-01T11:28:35;60589.84;;;-144.06;37.33
11017;BME280;54687;50.800;6.772;2022-09-01T11:31:23;60610.81;;;-144.06;37.36
11017;BME280;54687;50.800;6.772;2022-09-01T11:33:58;60585.66;;;-144.06;37.21
11017;BME280;54687;50.800;6.772;2022-09-01T11:36:30;60627.56;;;-144.06;37.16
11017;BME280;54687;50.800;6.772;2022-09-01T11:39:06;60594.03;;;-144.06;37.36
11017;BME280;54687;50.800;6.772;2022-09-01T11:41:46;60627.56;;;-144.06;37.56
11017;BME280;54687;50.800;6.772;2022-09-01T11:44:21;60583.56;;;-144.06;36.86
11017;BME280;54687;50.800;6.772;2022-09-01T11:46:51;60587.75;;;-144.06;37.00
11017;BME280;54687;50.800;6.772;2022-09-01T11:49:29;60577.28;;;-144.06;36.56
11017;BME280;54687;50.800;6.772;2022-09-01T11:51:57;60562.59;;;-144.06;36.66
11017;BME280;54687;50.800;6.772;2022-09-01T11:54:27;60560.50;;;-144.06;36.43
11017;BME280;54687;50.800;6.772;2022-09-01T11:56:55;60594.03;;;-144.06;36.29
11017;BME280;54687;50.800;6.772;2022-09-01T11:59:32;60568.88;;;-144.06;36.03
11017;BME280;54687;50.800;6.772;2022-09-01T12:01:59;60606.63;;;-144.06;35.77
11017;BME280;54687;50.800;6.772;2022-09-01T12:04:33;60589.84;;;-144.06;36.13
11017;BME280;54687;50.800;6.772;2022-09-01T12:07:04;60610.81;;;-144.06;36.18
11017;BME280;54687;50.800;6.772;2022-09-01T12:09:37;60531.16;;;-144.06;36.62
11017;BME280;54687;50.800;6.772;2022-09-01T12:12:06;60573.09;;;-144.06;36.61
11017;BME280;54687;50.800;6.772;2022-09-01T12:14:33;60581.47;;;-144.06;36.74
11017;BME280;54687;50.800;6.772;2022-09-01T12:17:02;60585.66;;;-144.06;36.75
11017;BME280;54687;50.800;6.772;2022-09-01T12:19:33;60596.13;;;-144.06;37.33
11017;BME280;54687;50.800;6.772;2022-09-01T12:22:06;60573.09;;;-144.06;37.43
11017;BME280;54687;50.800;6.772;2022-09-01T12:24:43;60577.28;;;-144.06;37.30
11017;BME280;54687;50.800;6.772;2022-09-01T12:27:11;60577.28;;;-144.06;37.45
11017;BME280;54687;50.800;6.772;2022-09-01T12:29:39;60606.63;;;-144.06;37.39
11017;BME280;54687;50.800;6.772;2022-09-01T12:32:06;60612.91;;;-144.06;37.49
11017;BME280;54687;50.800;6.772;2022-09-01T12:34:39;60594.03;;;-144.06;37.01
11017;BME280;54687;50.800;6.772;2022-09-01T12:37:09;60606.63;;;-144.06;37.10
11017;BME280;54687;50.800;6.772;2022-09-01T12:39:38;60573.09;;;-144.06;36.73
11017;BME280;54687;50.800;6.772;2022-09-01T12:42:23;60566.78;;;-144.06;36.30
11017;BME280;54687;50.800;6.772;2022-09-01T12:44:52;60577.28;;;-144.06;36.57
11017;BME280;54687;50.800;6.772;2022-09-01T12:47:48;60524.88;;;-144.06;35.61
11017;BME280;54687;50.800;6.772;2022-09-01T12:50:35;60571.00;;;-144.06;35.66
11017;BME280;54687;50.800;6.772;2022-09-01T12:53:03;60556.31;;;-144.06;36.12
11017;BME280;54687;50.800;6.772;2022-09-01T12:55:39;60589.84;;;-144.06;35.98
11017;BME280;54687;50.800;6.772;2022-09-01T12:58:07;60552.13;;;-144.06;35.66
11017;BME280;54687;50.800;6.772;2022-09-01T13:00:36;60581.47;;;-144.06;36.03
11017;BME280;54687;50.800;6.772;2022-09-01T13:03:07;60581.47;;;-144.06;36.52